This is the latest recevied weather packets stored in our database for station/object WC4PEM. If no packets are shown the sender has not sent any weather packets the latest 10 day(s).
| Time | Temp. | Humidity | Pressure | Rain* | Wind** | Luminosity | Snow |
|---|---|---|---|---|---|---|---|
| 1778197188 | 31.11° C | 44% | 1012.7 hPa | 0 mm | - | - | - |
| 1778197161 | 30.56° C | 45% | 1012.8 hPa | 0 mm | - | - | - |
| 1778196861 | 31.11° C | 44% | 1012.7 hPa | 0 mm | - | - | - |
| 1778196774 | 31.11° C | 44% | 1012.7 hPa | 0 mm | - | - | - |
| 1778196670 | 31.11° C | 44% | 1012.7 hPa | 0 mm | - | - | - |
| 1778196561 | 31.11° C | 44% | 1012.7 hPa | 0 mm | - | - | - |
| 1778196469 | 31.11° C | 44% | 1012.6 hPa | 0 mm | - | - | - |
| 1778196261 | 31.11° C | 44% | 1012.6 hPa | 0 mm | - | - | - |
| 1778195961 | 31.11° C | 44% | 1012.6 hPa | 0 mm | - | - | - |
| 1778195869 | 31.67° C | 43% | 1012.5 hPa | 0 mm | - | - | - |
| 1778195661 | 31.67° C | 43% | 1012.5 hPa | 0 mm | - | - | - |
| 1778195361 | 31.67° C | 43% | 1012.5 hPa | 0 mm | - | - | - |
| 1778195105 | 31.67° C | 43% | 1012.6 hPa | 0 mm | - | - | - |
| 1778195061 | 31.67° C | 43% | 1012.6 hPa | 0 mm | - | - | - |
| 1778194847 | 32.78° C | 43% | 1012.4 hPa | 0 mm | - | - | - |
| 1778194761 | 32.22° C | 43% | 1012.5 hPa | 0 mm | - | - | - |
| 1778194461 | 32.22° C | 43% | 1012.5 hPa | 0 mm | - | - | - |
| 1778194161 | 32.22° C | 44% | 1012.4 hPa | 0 mm | - | - | - |
| 1778193861 | 32.22° C | 44% | 1012.4 hPa | 0 mm | - | - | - |
| 1778193612 | 32.78° C | 43% | 1012.4 hPa | 0 mm | - | - | - |
| 1778193561 | 32.78° C | 43% | 1012.4 hPa | 0 mm | - | - | - |
| 1778193481 | 33.89° C | 36% | 1012.3 hPa | 0 mm | - | - | - |
| 1778193261 | 32.78° C | 43% | 1012.4 hPa | 0 mm | - | - | - |
| 1778192961 | 32.78° C | 43% | 1012.4 hPa | 0 mm | - | - | - |
| 1778192661 | 32.78° C | 41% | 1012.3 hPa | 0 mm | - | - | - |
* Rain latest hour (hover to see other rain measurements)
** Current wind speed in m/s (hover to see current wind gust speed)